Time;durP1;ratioP1;P1;durP2;ratioP2;P2;SDS_P1;SDS_P2;PMS_P1;PMS_P2;Temp;Humidity;BMP_temperature;BMP_pressure;BME280_temperature;BME280_humidity;BME280_pressure;Samples;Min_cycle;Max_cycle;Signal;HPM_P1;HPM_P2
2023/12/23 00:01:13;;;;;;;2.30;0.40;;;;;;;-0.77;100.00;99076.38;7397316;19;20493;-69
2023/12/23 00:03:44;;;;;;;0.55;0.30;;;;;;;-0.78;100.00;99092.66;7396977;19;20031;-69
2023/12/23 00:06:13;;;;;;;0.30;0.30;;;;;;;-0.83;100.00;99078.09;7398686;19;20022;-68
2023/12/23 00:08:41;;;;;;;2.05;0.50;;;;;;;-0.82;100.00;99078.97;7397568;19;20015;-68
2023/12/23 00:11:10;;;;;;;5.10;0.73;;;;;;;-0.74;100.00;99104.72;7396173;19;20018;-69
2023/12/23 00:13:38;;;;;;;1.58;1.30;;;;;;;-0.65;100.00;99099.53;7396524;19;20032;-69
2023/12/23 00:16:07;;;;;;;2.08;0.90;;;;;;;-0.57;100.00;99066.00;7395408;19;20015;-68
2023/12/23 00:18:35;;;;;;;2.65;0.80;;;;;;;-0.54;100.00;99084.03;7396008;19;20015;-69
2023/12/23 00:21:07;;;;;;;4.68;1.10;;;;;;;-0.45;100.00;99090.88;7397341;19;20027;-71
2023/12/23 00:23:35;;;;;;;5.68;1.00;;;;;;;-0.43;100.00;99099.44;7395986;19;20498;-70
2023/12/23 00:26:03;;;;;;;4.90;1.33;;;;;;;-0.35;100.00;99111.44;7397482;19;20078;-69
2023/12/23 00:28:32;;;;;;;3.08;0.80;;;;;;;-0.32;100.00;99115.72;7396980;19;20027;-70
2023/12/23 00:31:00;;;;;;;7.22;1.30;;;;;;;-0.28;100.00;99116.59;7397233;19;20015;-70
2023/12/23 00:33:29;;;;;;;9.02;1.42;;;;;;;-0.29;100.00;99132.91;7396275;19;20149;-70
2023/12/23 00:35:57;;;;;;;7.68;1.77;;;;;;;-0.27;100.00;99133.75;7396812;19;20430;-69
2023/12/23 00:38:28;;;;;;;5.35;1.05;;;;;;;-0.26;100.00;99099.41;7395225;19;20027;-70
2023/12/23 00:40:57;;;;;;;8.35;1.17;;;;;;;-0.25;100.00;99127.75;7397322;19;20032;-71
2023/12/23 00:43:25;;;;;;;6.45;1.80;;;;;;;-0.19;100.00;99125.16;7395549;19;20014;-70
2023/12/23 00:45:55;;;;;;;5.78;1.10;;;;;;;-0.22;100.00;99127.72;7396872;19;20033;-70
2023/12/23 00:48:23;;;;;;;7.90;2.03;;;;;;;-0.12;100.00;99145.75;7396647;19;20377;-71
2023/12/23 00:50:51;;;;;;;7.78;1.23;;;;;;;-0.08;100.00;99153.44;7395128;19;20022;-71
2023/12/23 00:53:29;;;;;;;11.15;2.03;;;;;;;-0.04;100.00;99141.41;7395443;19;20014;-72
2023/12/23 00:55:58;;;;;;;8.60;1.08;;;;;;;-0.02;100.00;99157.72;7397003;19;20027;-72
2023/12/23 00:58:26;;;;;;;4.25;1.17;;;;;;;0.01;100.00;99177.50;7394410;19;20477;-72
2023/12/23 01:00:55;;;;;;;6.60;1.10;;;;;;;0.02;100.00;99138.78;7396468;19;20023;-72
2023/12/23 01:03:23;;;;;;;5.82;1.10;;;;;;;0.09;100.00;99186.91;7395022;19;20494;-72
2023/12/23 01:05:52;;;;;;;5.30;1.25;;;;;;;0.07;100.00;99193.78;7396265;19;20024;-72
2023/12/23 01:08:20;;;;;;;8.00;1.48;;;;;;;0.11;100.00;99192.06;7396124;19;20031;-72
2023/12/23 01:10:51;;;;;;;6.75;1.13;;;;;;;0.13;100.00;99196.34;7395727;19;20014;-72
2023/12/23 01:13:20;;;;;;;5.22;0.98;;;;;;;0.10;100.00;99209.25;7393175;19;20028;-72
2023/12/23 01:15:48;;;;;;;6.65;1.40;;;;;;;0.13;100.00;99209.22;7395969;19;20018;-71
2023/12/23 01:18:16;;;;;;;8.77;1.45;;;;;;;0.17;100.00;99235.03;7393878;19;20019;-71
2023/12/23 01:20:46;;;;;;;14.10;2.10;;;;;;;0.14;100.00;99221.28;7395398;19;20010;-71
2023/12/23 01:23:14;;;;;;;11.52;1.65;;;;;;;0.15;100.00;99235.91;7394541;19;20385;-71
2023/12/23 01:25:43;;;;;;;3.78;1.20;;;;;;;0.17;100.00;99253.09;7395729;19;20070;-72
2023/12/23 01:28:14;;;;;;;6.72;1.30;;;;;;;0.20;100.00;99265.97;7395609;19;20022;-72
2023/12/23 01:30:42;;;;;;;4.32;1.23;;;;;;;0.15;100.00;99277.16;7395236;19;20537;-72
2023/12/23 01:33:11;;;;;;;8.48;1.42;;;;;;;0.17;100.00;99287.47;7394367;19;20007;-72
2023/12/23 01:35:39;;;;;;;9.85;1.45;;;;;;;0.20;100.00;99307.22;7395422;19;20014;-71
2023/12/23 01:38:08;;;;;;;6.00;0.80;;;;;;;0.21;100.00;99299.47;7393926;19;20024;-72
2023/12/23 01:40:36;;;;;;;6.55;1.52;;;;;;;0.18;100.00;99308.94;7394940;19;20078;-72
2023/12/23 01:43:05;;;;;;;5.60;1.77;;;;;;;0.22;100.00;99314.09;7394443;19;20014;-71
2023/12/23 01:45:36;;;;;;;3.80;1.13;;;;;;;0.25;100.00;99359.66;7394854;19;20481;-71
2023/12/23 01:48:06;;;;;;;4.82;1.20;;;;;;;0.26;100.00;99327.84;7394763;19;20481;-71
2023/12/23 01:50:35;;;;;;;11.68;2.28;;;;;;;0.24;100.00;99322.72;7393532;19;20075;-71
2023/12/23 01:53:04;;;;;;;6.50;1.80;;;;;;;0.25;100.00;99339.03;7393674;19;20481;-72
2023/12/23 01:55:34;;;;;;;11.52;1.38;;;;;;;0.29;100.00;99333.00;7394429;19;20014;-72
2023/12/23 01:58:02;;;;;;;11.77;2.33;;;;;;;0.31;100.00;99351.91;7393565;19;20014;-72
2023/12/23 02:00:31;;;;;;;12.35;2.15;;;;;;;0.31;100.00;99367.41;7394347;19;20481;-73
2023/12/23 02:03:02;;;;;;;9.77;1.88;;;;;;;0.35;100.00;99357.94;7393920;19;20010;-72
2023/12/23 02:05:31;;;;;;;9.88;1.73;;;;;;;0.29;100.00;99356.22;7394981;19;20078;-74
2023/12/23 02:08:00;;;;;;;4.60;1.00;;;;;;;0.40;100.00;99382.84;7394480;19;20023;-74
2023/12/23 02:10:29;;;;;;;7.70;1.83;;;;;;;0.42;100.00;99375.97;7394570;19;20415;-74
2023/12/23 02:13:05;;;;;;;5.88;1.42;;;;;;;0.40;100.00;99372.53;7394691;19;20010;-73
2023/12/23 02:15:43;;;;;;;16.55;2.10;;;;;;;0.44;100.00;99384.59;7394629;19;20078;-74
2023/12/23 02:18:20;;;;;;;7.57;1.85;;;;;;;0.45;100.00;99388.84;7391912;19;20498;-72
2023/12/23 02:20:58;;;;;;;11.27;1.95;;;;;;;0.42;100.00;99396.63;7394288;19;20364;-74
2023/12/23 02:23:27;;;;;;;7.85;1.15;;;;;;;0.44;100.00;99388.88;7393563;19;20082;-74
2023/12/23 02:26:01;;;;;;;9.00;1.52;;;;;;;0.47;100.00;99410.38;7401139;19;20074;-74
2023/12/23 02:28:29;;;;;;;7.53;1.13;;;;;;;0.43;100.00;99403.50;7401970;19;20025;-73
2023/12/23 02:31:00;;;;;;;5.07;1.35;;;;;;;0.40;100.00;99400.91;7400945;19;20011;-74
2023/12/23 02:33:28;;;;;;;9.77;1.38;;;;;;;0.46;100.00;99424.13;7399914;19;20015;-76
2023/12/23 02:35:59;;;;;;;6.68;1.45;;;;;;;0.49;100.00;99412.94;7400605;19;20074;-75
2023/12/23 02:38:28;;;;;;;10.00;1.70;;;;;;;0.48;100.00;99424.13;7400015;19;20070;-78
2023/12/23 02:40:57;;;;;;;5.68;1.50;;;;;;;0.46;100.00;99418.13;7400824;19;20032;-69
2023/12/23 02:43:25;;;;;;;5.70;0.93;;;;;;;0.45;99.46;99435.31;7399363;19;20019;-69
2023/12/23 02:45:54;;;;;;;8.98;1.52;;;;;;;0.46;99.27;99426.72;7400741;19;20027;-70
2023/12/23 02:48:22;;;;;;;5.35;1.25;;;;;;;0.41;98.39;99420.69;7400205;19;20006;-68
2023/12/23 02:50:51;;;;;;;4.28;1.13;;;;;;;0.47;97.74;99441.34;7401993;19;20011;-74
2023/12/23 02:53:22;;;;;;;9.77;1.27;;;;;;;0.46;99.29;99438.75;7398896;19;20497;-69
2023/12/23 02:55:50;;;;;;;9.57;1.50;;;;;;;0.43;97.58;99454.22;7401157;19;20025;-72
2023/12/23 02:58:19;;;;;;;5.68;1.23;;;;;;;0.36;98.58;99448.22;7398329;19;20497;-73
2023/12/23 03:00:47;;;;;;;6.05;1.58;;;;;;;0.39;96.82;99460.28;7400280;19;20070;-73
2023/12/23 03:03:15;;;;;;;6.28;1.38;;;;;;;0.38;97.37;99458.53;7399004;19;20509;-73
2023/12/23 03:05:44;;;;;;;5.97;1.40;;;;;;;0.41;96.58;99455.97;7400032;19;20028;-73
2023/12/23 03:08:13;;;;;;;9.52;1.58;;;;;;;0.36;98.25;99458.56;7399444;19;20481;-73
2023/12/23 03:10:44;;;;;;;12.18;1.50;;;;;;;0.40;97.76;99475.75;7399864;19;20006;-72
2023/12/23 03:13:12;;;;;;;7.72;1.05;;;;;;;0.41;99.02;99480.06;7399188;19;20018;-73
2023/12/23 03:15:41;;;;;;;10.00;1.20;;;;;;;0.38;95.92;99474.91;7399689;19;20037;-73
2023/12/23 03:18:09;;;;;;;9.88;1.33;;;;;;;0.35;96.12;99474.88;7396697;19;20086;-73
2023/12/23 03:20:37;;;;;;;5.93;1.23;;;;;;;0.41;96.43;99492.09;7400018;19;20014;-73
2023/12/23 03:23:06;;;;;;;15.90;1.80;;;;;;;0.34;94.02;99491.22;7398176;19;20014;-73
2023/12/23 03:25:35;;;;;;;11.10;1.35;;;;;;;0.41;95.70;99508.44;7399320;19;20010;-73
2023/12/23 03:28:06;;;;;;;7.57;2.10;;;;;;;0.40;96.61;99529.09;7398724;19;20478;-73
2023/12/23 03:30:35;;;;;;;16.17;1.80;;;;;;;0.38;96.53;99511.03;7396812;19;20053;-72
2023/12/23 03:33:03;;;;;;;13.82;1.90;;;;;;;0.34;96.27;99506.72;7398025;19;20027;-73
2023/12/23 03:35:32;;;;;;;13.82;2.28;;;;;;;0.37;96.03;99532.53;7397890;19;20078;-72
2023/12/23 03:38:00;;;;;;;10.55;2.05;;;;;;;0.39;95.45;99527.34;7397688;19;20031;-72
2023/12/23 03:40:29;;;;;;;15.75;1.52;;;;;;;0.38;96.54;99538.53;7398586;19;20420;-72
2023/12/23 03:42:57;;;;;;;12.73;1.85;;;;;;;0.37;96.11;99535.09;7398138;19;20022;-73
2023/12/23 03:45:28;;;;;;;9.02;1.30;;;;;;;0.38;96.84;99531.66;7398468;19;20477;-73
2023/12/23 03:47:57;;;;;;;11.70;1.95;;;;;;;0.38;95.32;99548.84;7398583;19;20376;-73
2023/12/23 03:50:25;;;;;;;8.52;1.50;;;;;;;0.37;95.18;99547.13;7398745;19;20027;-72
2023/12/23 03:52:54;;;;;;;10.68;1.48;;;;;;;0.38;94.49;99554.91;7397882;19;20342;-72
2023/12/23 03:55:29;;;;;;;14.82;2.40;;;;;;;0.38;96.14;99557.47;7398247;19;20015;-72
2023/12/23 03:57:57;;;;;;;9.95;1.83;;;;;;;0.38;94.30;99560.06;7397496;19;20010;-72
2023/12/23 04:00:28;;;;;;;11.40;1.65;;;;;;;0.40;93.14;99575.53;7398016;19;20015;-72
2023/12/23 04:02:57;;;;;;;8.00;2.00;;;;;;;0.40;92.34;99555.72;7397306;19;20494;-71
2023/12/23 04:05:25;;;;;;;9.55;1.63;;;;;;;0.41;93.51;99554.03;7397856;19;20494;-72
2023/12/23 04:07:54;;;;;;;7.53;1.50;;;;;;;0.43;92.87;99547.13;7398159;19;20023;-71
2023/12/23 04:10:22;;;;;;;11.18;1.60;;;;;;;0.46;91.48;99547.16;7397914;19;20027;-70
2023/12/23 04:12:51;;;;;;;8.35;1.33;;;;;;;0.46;92.99;99549.72;7397345;19;20078;-71
2023/12/23 04:15:19;;;;;;;9.05;1.60;;;;;;;0.45;92.91;99546.28;7397538;19;20481;-70
2023/12/23 04:17:50;;;;;;;11.50;1.63;;;;;;;0.46;91.56;99560.91;7395862;19;20516;-70
2023/12/23 04:20:19;;;;;;;14.32;2.10;;;;;;;0.47;93.64;99554.88;7395743;19;20497;-71
2023/12/23 04:22:48;;;;;;;12.13;1.90;;;;;;;0.50;93.92;99558.34;7395251;19;20498;-71
2023/12/23 04:25:17;;;;;;;12.60;1.85;;;;;;;0.50;93.79;99563.50;7397578;19;20086;-70
2023/12/23 04:27:45;;;;;;;7.55;1.40;;;;;;;0.53;91.05;99576.41;7397070;19;20492;-70
2023/12/23 04:30:14;;;;;;;20.02;2.35;;;;;;;0.53;92.63;99579.84;7397000;19;20027;-70
2023/12/23 04:32:43;;;;;;;9.80;1.73;;;;;;;0.55;93.87;99561.78;7396440;19;20015;-70
2023/12/23 04:35:14;;;;;;;10.30;1.83;;;;;;;0.58;92.08;99574.66;7397209;19;20082;-70
2023/12/23 04:37:44;;;;;;;10.45;1.77;;;;;;;0.60;95.43;99575.53;7396964;19;20011;-70
2023/12/23 04:40:15;;;;;;;9.43;2.00;;;;;;;0.61;93.40;99579.84;7397001;19;20010;-70
2023/12/23 04:42:44;;;;;;;15.57;2.15;;;;;;;0.63;95.73;99572.94;7394844;19;20343;-70
2023/12/23 04:45:12;;;;;;;13.52;1.92;;;;;;;0.66;94.52;99572.97;7396834;19;20014;-70
2023/12/23 04:47:41;;;;;;;20.20;2.65;;;;;;;0.65;94.98;99577.25;7394057;19;20431;-71
2023/12/23 04:50:10;;;;;;;13.93;2.03;;;;;;;0.70;95.11;99572.09;7396319;19;20010;-71
2023/12/23 04:52:41;;;;;;;9.77;2.33;;;;;;;0.71;96.61;99567.78;7396174;19;20014;-71
2023/12/23 04:55:10;;;;;;;17.00;2.95;;;;;;;0.75;95.73;99565.22;7396862;19;20011;-71
2023/12/23 04:57:38;;;;;;;10.52;1.48;;;;;;;0.78;95.47;99579.84;7396267;19;20010;-69
2023/12/23 05:00:09;;;;;;;15.05;2.22;;;;;;;0.78;96.34;99561.75;7396409;19;20015;-69
2023/12/23 05:02:37;;;;;;;12.50;2.00;;;;;;;0.86;95.09;99578.13;7395790;19;20023;-70
2023/12/23 05:05:06;;;;;;;11.00;1.80;;;;;;;0.90;96.07;99568.66;7395967;19;20007;-70
2023/12/23 05:07:35;;;;;;;11.98;2.25;;;;;;;0.93;96.76;99563.47;7396092;19;20019;-70
2023/12/23 05:10:07;;;;;;;12.50;1.70;;;;;;;0.96;95.75;99587.56;7394385;19;20008;-70
2023/12/23 05:12:35;;;;;;;9.18;1.45;;;;;;;1.00;97.86;99559.16;7395945;19;20015;-71
2023/12/23 05:15:04;;;;;;;9.43;2.03;;;;;;;1.02;96.45;99562.59;7395517;19;20493;-71
2023/12/23 05:17:32;;;;;;;13.57;2.25;;;;;;;1.05;96.75;99567.75;7393770;19;20343;-70
2023/12/23 05:20:01;;;;;;;8.02;1.95;;;;;;;1.06;96.76;99564.31;7393706;19;20031;-70
2023/12/23 05:22:29;;;;;;;12.45;1.60;;;;;;;1.08;95.71;99571.19;7395303;19;20006;-70
2023/12/23 05:25:04;;;;;;;7.35;1.70;;;;;;;1.12;97.36;99572.88;7395630;19;20078;-70
2023/12/23 05:27:36;;;;;;;6.50;1.52;;;;;;;1.12;96.80;99565.16;7394121;19;20010;-70
2023/12/23 05:30:05;;;;;;;12.90;2.22;;;;;;;1.12;97.52;99559.97;7395906;19;20069;-70
2023/12/23 05:32:34;;;;;;;11.23;1.58;;;;;;;1.13;98.01;99566.88;7394658;19;20022;-70
2023/12/23 05:35:02;;;;;;;10.25;1.45;;;;;;;1.13;99.42;99566.03;7395261;19;20018;-70
2023/12/23 05:37:31;;;;;;;12.20;2.38;;;;;;;1.13;98.59;99564.28;7394855;19;20375;-70
2023/12/23 05:39:59;;;;;;;10.77;1.67;;;;;;;1.15;100.00;99553.97;7393465;19;20086;-69
2023/12/23 05:42:28;;;;;;;10.38;1.80;;;;;;;1.13;99.83;99542.78;7394590;19;20073;-70
2023/12/23 05:44:59;;;;;;;13.18;1.85;;;;;;;1.07;99.68;99533.28;7394492;19;20015;-70
2023/12/23 05:47:29;;;;;;;10.90;1.88;;;;;;;1.16;100.00;99536.72;7394506;19;20078;-70
2023/12/23 05:49:58;;;;;;;9.82;1.65;;;;;;;1.12;100.00;99522.97;7394591;19;20544;-69
2023/12/23 05:52:26;;;;;;;14.52;2.28;;;;;;;1.16;100.00;99531.56;7394031;19;20477;-69
2023/12/23 05:54:55;;;;;;;13.35;2.63;;;;;;;1.17;100.00;99518.63;7394762;19;20018;-70
2023/12/23 05:57:23;;;;;;;12.10;1.80;;;;;;;1.18;100.00;99519.53;7394750;19;20010;-69
2023/12/23 05:59:52;;;;;;;13.40;2.17;;;;;;;1.20;100.00;99539.31;7396974;19;20082;-70
2023/12/23 06:02:23;;;;;;;10.52;1.90;;;;;;;1.23;100.00;99525.53;7401761;19;20073;-70
2023/12/23 06:04:52;;;;;;;13.93;2.28;;;;;;;1.26;100.00;99525.50;7402708;19;20418;-70
2023/12/23 06:07:20;;;;;;;15.38;3.22;;;;;;;1.27;100.00;99522.06;7401622;19;20015;-70
2023/12/23 06:09:49;;;;;;;12.63;1.92;;;;;;;1.28;100.00;99526.38;7401396;19;20502;-70
2023/12/23 06:12:17;;;;;;;11.32;1.67;;;;;;;1.30;100.00;99517.75;7401095;19;20023;-70
2023/12/23 06:14:46;;;;;;;10.02;1.77;;;;;;;1.33;100.00;99516.88;7401730;19;20011;-70
2023/12/23 06:17:14;;;;;;;13.85;1.80;;;;;;;1.34;100.00;99512.56;7400866;19;20074;-71
2023/12/23 06:19:45;;;;;;;12.98;2.53;;;;;;;1.37;100.00;99538.41;7397792;19;20014;-70
2023/12/23 06:22:14;;;;;;;10.15;3.13;;;;;;;1.39;100.00;99493.59;7398767;19;20074;-70
2023/12/23 06:24:42;;;;;;;13.90;2.13;;;;;;;1.42;100.00;99496.16;7401086;19;20367;-70
2023/12/23 06:27:11;;;;;;;10.70;1.88;;;;;;;1.42;100.00;99503.91;7401061;19;20011;-70
2023/12/23 06:29:39;;;;;;;12.75;2.10;;;;;;;1.43;100.00;99486.69;7401191;19;20019;-70
2023/12/23 06:32:08;;;;;;;14.10;2.88;;;;;;;1.44;100.00;99501.31;7400829;19;20478;-70
2023/12/23 06:34:37;;;;;;;13.10;2.33;;;;;;;1.43;100.00;99508.22;7398465;19;20074;-70
2023/12/23 06:37:08;;;;;;;8.15;2.25;;;;;;;1.43;100.00;99491.84;7400922;19;20074;-69
2023/12/23 06:39:36;;;;;;;14.30;2.67;;;;;;;1.41;100.00;99494.41;7399067;19;20472;-69
2023/12/23 06:42:05;;;;;;;14.50;2.92;;;;;;;1.39;100.00;99484.97;7400815;19;20031;-69
2023/12/23 06:44:34;;;;;;;17.52;2.40;;;;;;;1.35;100.00;99489.28;7398258;19;20011;-69
2023/12/23 06:47:02;;;;;;;12.02;2.03;;;;;;;1.37;100.00;99489.28;7400393;19;20085;-69
2023/12/23 06:49:31;;;;;;;11.27;2.55;;;;;;;1.36;100.00;99485.84;7400143;19;20026;-69
2023/12/23 06:51:59;;;;;;;16.80;2.55;;;;;;;1.34;100.00;99492.75;7400278;19;20077;-69
2023/12/23 06:54:30;;;;;;;13.77;2.78;;;;;;;1.33;100.00;99479.81;7397833;19;20485;-69
2023/12/23 06:56:59;;;;;;;14.48;2.85;;;;;;;1.32;100.00;99484.13;7400902;19;20036;-69
2023/12/23 06:59:27;;;;;;;17.48;2.50;;;;;;;1.31;100.00;99479.81;7397718;19;20014;-69
2023/12/23 07:01:56;;;;;;;15.20;3.65;;;;;;;1.28;100.00;99485.88;7399904;19;20533;-69
2023/12/23 07:04:24;;;;;;;11.93;2.67;;;;;;;1.26;100.00;99474.69;7397885;19;20074;-69
2023/12/23 07:06:53;;;;;;;14.23;1.98;;;;;;;1.24;100.00;99484.16;7399985;19;20010;-69
2023/12/23 07:09:21;;;;;;;14.00;2.83;;;;;;;1.20;100.00;99469.56;7399994;19;20498;-69
2023/12/23 07:11:52;;;;;;;11.98;2.10;;;;;;;1.17;100.00;99476.44;7397846;19;20023;-69
2023/12/23 07:14:21;;;;;;;22.55;3.03;;;;;;;1.16;100.00;99482.47;7397412;19;20019;-69
2023/12/23 07:16:49;;;;;;;16.35;2.63;;;;;;;1.15;100.00;99468.72;7399721;19;20083;-68
2023/12/23 07:19:18;;;;;;;17.92;2.40;;;;;;;1.12;100.00;99463.53;7396513;19;20032;-68
2023/12/23 07:21:52;;;;;;;18.80;2.72;;;;;;;1.11;100.00;99467.00;7399722;19;20019;-68
2023/12/23 07:24:21;;;;;;;15.98;2.60;;;;;;;1.10;100.00;99458.38;7397165;19;20533;-69
2023/12/23 07:26:52;;;;;;;22.13;2.78;;;;;;;1.11;100.00;99448.91;7399466;19;20082;-69
2023/12/23 07:29:22;;;;;;;18.67;2.95;;;;;;;1.09;100.00;99454.09;7399768;19;20070;-68
2023/12/23 07:31:50;;;;;;;11.13;2.20;;;;;;;1.10;100.00;99457.50;7399232;19;20023;-67
2023/12/23 07:34:19;;;;;;;20.13;2.88;;;;;;;1.09;100.00;99450.66;7397125;19;20074;-68
2023/12/23 07:36:47;;;;;;;16.27;2.22;;;;;;;1.11;100.00;99443.75;7398601;19;20364;-68
2023/12/23 07:39:17;;;;;;;12.50;2.50;;;;;;;1.11;100.00;99443.75;7395942;19;20014;-68
2023/12/23 07:41:45;;;;;;;11.80;2.15;;;;;;;1.11;100.00;99438.56;7398344;19;20015;-69
2023/12/23 07:44:17;;;;;;;10.35;2.20;;;;;;;1.12;100.00;99446.31;7396876;19;20090;-69
2023/12/23 07:46:45;;;;;;;14.43;2.70;;;;;;;1.12;100.00;99438.56;7398929;19;20027;-69
2023/12/23 07:49:13;;;;;;;11.93;2.50;;;;;;;1.13;100.00;99439.44;7398177;19;20375;-69
2023/12/23 07:51:42;;;;;;;13.75;2.83;;;;;;;1.12;100.00;99428.22;7398107;19;20032;-69
2023/12/23 07:54:10;;;;;;;11.10;2.40;;;;;;;1.12;100.00;99430.81;7396777;19;20018;-69
2023/12/23 07:56:39;;;;;;;5.50;1.98;;;;;;;1.13;100.00;99431.69;7398316;19;20074;-69
2023/12/23 07:59:07;;;;;;;14.25;2.10;;;;;;;1.14;100.00;99434.25;7397515;19;20027;-69
2023/12/23 08:01:45;;;;;;;12.75;2.03;;;;;;;1.14;100.00;99438.56;7398222;19;20011;-69
2023/12/23 08:04:15;;;;;;;13.30;2.55;;;;;;;1.13;100.00;99442.88;7396121;19;20319;-69
2023/12/23 08:06:44;;;;;;;12.15;1.80;;;;;;;1.12;100.00;99428.22;7398424;19;20006;-67
2023/12/23 08:09:13;;;;;;;10.68;1.90;;;;;;;1.13;100.00;99445.44;7397687;19;20477;-69
2023/12/23 08:11:41;;;;;;;10.18;2.83;;;;;;;1.13;100.00;99436.84;7395646;19;20036;-68
2023/12/23 08:14:11;;;;;;;10.38;2.20;;;;;;;1.12;100.00;99433.38;7395617;19;20532;-68
2023/12/23 08:16:48;;;;;;;14.07;2.72;;;;;;;1.12;100.00;99437.72;7397827;19;20011;-67
2023/12/23 08:19:17;;;;;;;9.52;3.00;;;;;;;1.13;100.00;99447.19;7395351;19;20031;-68
2023/12/23 08:21:45;;;;;;;9.13;1.98;;;;;;;1.12;100.00;99456.63;7399241;19;20019;-68
2023/12/23 08:24:14;;;;;;;13.65;2.42;;;;;;;1.12;100.00;99445.47;7395751;19;20471;-68
2023/12/23 08:26:42;;;;;;;8.68;1.90;;;;;;;1.12;100.00;99445.47;7396723;19;20024;-68
2023/12/23 08:29:11;;;;;;;8.20;2.35;;;;;;;1.11;100.00;99456.66;7396935;19;20006;-68
2023/12/23 08:31:44;;;;;;;7.95;2.10;;;;;;;1.10;100.00;99448.06;7396809;19;20070;-69
2023/12/23 08:34:15;;;;;;;5.57;1.80;;;;;;;1.11;100.00;99444.63;7395852;19;20018;-69
2023/12/23 08:36:44;;;;;;;8.95;1.95;;;;;;;1.11;100.00;99441.16;7396642;19;20020;-68
2023/12/23 08:39:12;;;;;;;9.32;2.00;;;;;;;1.11;100.00;99439.44;7396400;19;20027;-67
2023/12/23 08:41:41;;;;;;;8.50;2.70;;;;;;;1.13;100.00;99445.44;7396137;19;20006;-67
2023/12/23 08:44:09;;;;;;;7.82;2.30;;;;;;;1.17;100.00;99437.69;7395163;19;20027;-67
2023/12/23 08:46:38;;;;;;;5.40;1.80;;;;;;;1.18;100.00;99434.25;7396386;19;20019;-67
2023/12/23 08:49:06;;;;;;;8.95;1.90;;;;;;;1.18;100.00;99436.84;7396041;19;20031;-67
2023/12/23 08:51:38;;;;;;;3.58;1.90;;;;;;;1.20;100.00;99432.50;7397204;19;20037;-65
2023/12/23 08:54:07;;;;;;;6.90;2.10;;;;;;;1.18;100.00;99435.09;7394356;19;20483;-65
2023/12/23 08:56:35;;;;;;;6.65;2.30;;;;;;;1.18;100.00;99429.09;7396161;19;20027;-66
2023/12/23 08:59:04;;;;;;;6.88;2.72;;;;;;;1.16;100.00;99431.66;7395914;19;20066;-68
2023/12/23 09:01:32;;;;;;;8.00;3.13;;;;;;;1.14;100.00;99423.91;7395884;19;20491;-68
2023/12/23 09:04:01;;;;;;;5.45;1.75;;;;;;;1.12;100.00;99435.97;7394208;19;20069;-68
2023/12/23 09:06:29;;;;;;;6.93;1.90;;;;;;;1.09;100.00;99440.31;7395436;19;20481;-68
2023/12/23 09:09:01;;;;;;;4.53;1.60;;;;;;;1.06;100.00;99437.72;7395824;19;20014;-68
2023/12/23 09:11:29;;;;;;;4.90;1.65;;;;;;;1.02;100.00;99434.28;7396109;19;20024;-68
2023/12/23 09:13:58;;;;;;;6.30;1.90;;;;;;;1.00;100.00;99443.78;7393594;19;20070;-68
2023/12/23 09:16:26;;;;;;;7.72;1.80;;;;;;;0.95;100.00;99432.63;7395327;19;20081;-68
2023/12/23 09:18:55;;;;;;;5.35;2.08;;;;;;;0.93;100.00;99429.19;7394673;19;20078;-68
2023/12/23 09:21:23;;;;;;;4.30;1.67;;;;;;;0.90;100.00;99424.03;7393235;19;20010;-68
2023/12/23 09:23:52;;;;;;;5.13;1.65;;;;;;;0.88;100.00;99425.75;7394397;19;20022;-68
2023/12/23 09:26:24;;;;;;;4.03;1.42;;;;;;;0.87;100.00;99424.03;7394065;19;20015;-68
2023/12/23 09:28:52;;;;;;;8.30;2.15;;;;;;;0.85;100.00;99424.03;7395755;19;20028;-68
2023/12/23 09:31:21;;;;;;;5.28;2.70;;;;;;;0.81;100.00;99420.59;7394497;19;20371;-68
2023/12/23 09:33:49;;;;;;;9.18;4.95;;;;;;;0.77;100.00;99421.50;7392641;19;20094;-68
2023/12/23 09:36:18;;;;;;;6.90;2.53;;;;;;;0.73;100.00;99427.50;7394890;19;20024;-68
2023/12/23 09:38:46;;;;;;;15.52;8.60;;;;;;;0.71;100.00;99434.41;7392618;19;20007;-69
2023/12/23 09:41:15;;;;;;;12.65;6.05;;;;;;;0.68;100.00;99429.25;7393287;19;20036;-69
2023/12/23 09:43:47;;;;;;;8.75;5.45;;;;;;;0.63;100.00;99413.78;7393725;19;20095;-69
2023/12/23 09:46:18;;;;;;;8.00;3.03;;;;;;;0.63;100.00;99412.91;7395036;19;20073;-68
2023/12/23 09:48:46;;;;;;;2.40;1.23;;;;;;;0.61;100.00;99417.22;7394022;19;20014;-68
2023/12/23 09:51:15;;;;;;;4.22;1.98;;;;;;;0.59;100.00;99411.19;7394031;19;20031;-69
2023/12/23 09:53:47;;;;;;;4.82;2.33;;;;;;;0.55;100.00;99404.34;7392877;19;20025;-68
2023/12/23 09:56:16;;;;;;;3.85;2.38;;;;;;;0.53;100.00;99400.91;7392985;19;20014;-69
2023/12/23 09:58:48;;;;;;;3.90;1.95;;;;;;;0.48;100.00;99401.78;7392707;19;20017;-68
2023/12/23 10:01:17;;;;;;;14.90;9.10;;;;;;;0.44;100.00;99394.91;7393269;19;20074;-69
2023/12/23 10:03:46;;;;;;;10.00;6.30;;;;;;;0.42;100.00;99406.09;7392608;19;20031;-69
2023/12/23 10:06:16;;;;;;;5.40;2.92;;;;;;;0.40;100.00;99402.66;7394071;19;20081;-68
2023/12/23 10:08:44;;;;;;;17.42;15.98;;;;;;;0.39;100.00;99400.91;7394208;19;20040;-68
2023/12/23 10:11:13;;;;;;;15.48;13.98;;;;;;;0.38;100.00;99406.94;7394051;19;20018;-69
2023/12/23 10:13:41;;;;;;;4.90;3.40;;;;;;;0.38;100.00;99399.19;7392395;19;20074;-69
2023/12/23 10:16:12;;;;;;;3.35;2.55;;;;;;;0.35;100.00;99404.38;7394005;19;20032;-69
2023/12/23 10:18:41;;;;;;;3.25;1.67;;;;;;;0.32;100.00;99392.34;7394103;19;20086;-69
2023/12/23 10:21:09;;;;;;;4.68;1.60;;;;;;;0.28;100.00;99395.78;7392030;19;20015;-69
2023/12/23 10:23:38;;;;;;;1.92;1.30;;;;;;;0.24;100.00;99394.94;7391224;19;20018;-69
2023/12/23 10:26:07;;;;;;;2.70;1.50;;;;;;;0.22;100.00;99400.97;7393161;19;20092;-68
2023/12/23 10:28:37;;;;;;;3.00;1.80;;;;;;;0.20;100.00;99393.19;7392735;19;20014;-68
2023/12/23 10:31:09;;;;;;;5.18;3.17;;;;;;;0.19;100.00;99391.50;7393338;19;20062;-68
2023/12/23 10:33:47;;;;;;;5.32;3.75;;;;;;;0.20;100.00;99387.19;7391585;19;20027;-68
2023/12/23 10:36:15;;;;;;;7.72;4.03;;;;;;;0.21;100.00;99396.66;7393060;19;20070;-68
2023/12/23 10:38:56;;;;;;;6.57;2.85;;;;;;;0.20;100.00;99398.34;7398049;19;20007;-68
2023/12/23 10:41:33;;;;;;;6.28;4.28;;;;;;;0.20;100.00;99395.78;7392465;19;20090;-68
2023/12/23 10:44:03;;;;;;;5.60;3.60;;;;;;;0.21;100.00;99391.50;7391224;19;20023;-67
2023/12/23 10:46:33;;;;;;;7.63;4.97;;;;;;;0.21;100.00;99383.75;7394195;19;20018;-67
2023/12/23 10:49:05;;;;;;;8.35;5.38;;;;;;;0.23;100.00;99382.00;7400553;19;20085;-67
2023/12/23 10:51:35;;;;;;;3.42;2.72;;;;;;;0.25;100.00;99386.34;7400861;19;20070;-67
2023/12/23 10:54:04;;;;;;;5.07;3.10;;;;;;;0.27;100.00;99382.03;7398286;19;20470;-67
2023/12/23 10:56:33;;;;;;;5.03;2.70;;;;;;;0.31;100.00;99377.72;7400720;19;20339;-67
2023/12/23 10:59:03;;;;;;;5.25;2.72;;;;;;;0.34;100.00;99387.16;7399791;19;20019;-67
2023/12/23 11:01:34;;;;;;;7.93;4.82;;;;;;;0.34;100.00;99388.03;7397990;19;20010;-67
2023/12/23 11:04:06;;;;;;;7.45;4.50;;;;;;;0.37;100.00;99390.59;7397555;19;20014;-68
2023/12/23 11:06:37;;;;;;;4.78;3.20;;;;;;;0.39;100.00;99385.44;7400097;19;20023;-68
2023/12/23 11:09:09;;;;;;;2.90;2.08;;;;;;;0.42;100.00;99393.19;7399709;19;20027;-66
2023/12/23 11:11:38;;;;;;;3.35;2.03;;;;;;;0.43;100.00;99395.75;7397147;19;20054;-68
2023/12/23 11:14:07;;;;;;;2.70;2.33;;;;;;;0.46;100.00;99394.91;7397309;19;20023;-68
2023/12/23 11:16:36;;;;;;;2.35;1.92;;;;;;;0.46;100.00;99394.91;7399140;19;20069;-68
2023/12/23 11:19:07;;;;;;;8.35;5.30;;;;;;;0.48;100.00;99396.59;7398642;19;20018;-68
2023/12/23 11:21:37;;;;;;;4.35;3.28;;;;;;;0.51;100.00;99397.47;7397786;19;20023;-68
2023/12/23 11:24:36;;;;;;;2.33;1.90;;;;;;;0.53;100.00;99403.47;7397475;19;20011;-68
2023/12/23 11:27:04;;;;;;;1.75;1.25;;;;;;;0.54;100.00;99400.03;7398515;19;20481;-68
2023/12/23 11:29:33;;;;;;;2.80;1.60;;;;;;;0.55;100.00;99407.75;7398511;19;20020;-68
2023/12/23 11:32:22;;;;;;;4.85;2.65;;;;;;;0.55;100.00;99407.75;7395806;19;20377;-68
2023/12/23 11:34:54;;;;;;;5.57;3.42;;;;;;;0.58;100.00;99402.63;7398483;19;20087;-68
2023/12/23 11:37:23;;;;;;;3.85;2.00;;;;;;;0.60;100.00;99407.75;7399269;19;20450;-68
2023/12/23 11:39:54;;;;;;;4.78;2.58;;;;;;;0.60;100.00;99402.59;7399284;19;20018;-69
2023/12/23 11:42:23;;;;;;;2.67;1.60;;;;;;;0.61;100.00;99391.41;7398174;19;20360;-68